Greenbush, Virginia
Current Conditions -  °F | °C
As of 11:55 PM on Tuesday 25 Nov 2014 (Local Time) from KMFV Reporting Station
Drizzle Drizzle  
Wind Chill: 50°   Ceiling: 5000
Heat Index: 50°   Visibility: 10mi
Dew Point: 45°   Wind: 5mph
Humidity: 82%   Direction: 90°E
Pressure: 30.13"   Gusts: NA
Location:  37.74°N, 75.68°W
Report Text: KMFV 260455Z AUTO 09004KT 10SM DZ BKN050 OVC080 10/07 A3013 RMK AO2 P0003
Loading
Personal Weather Stations






























Interactive Weather Map New forecast layout! Learn more

10-Day Weather Forecast

Advertisements
Track Severe Weather on mobile